Time;durP1;ratioP1;P1;durP2;ratioP2;P2;SDS_P1;SDS_P2;PMS_P1;PMS_P2;Temp;Humidity;BMP_temperature;BMP_pressure;BME280_temperature;BME280_humidity;BME280_pressure;Samples;Min_cycle;Max_cycle;Signal;HPM_P1;HPM_P2
2023/11/07 00:02:11;;;;;;;7.68;2.20;;;;;;;6.41;100.00;92302.47;6144528;23;20470;-76
2023/11/07 00:04:37;;;;;;;6.28;2.38;;;;;;;6.33;100.00;92297.81;6143261;23;20062;-75
2023/11/07 00:07:03;;;;;;;5.43;1.80;;;;;;;6.42;100.00;92302.22;6144647;23;20014;-76
2023/11/07 00:09:28;;;;;;;3.78;1.92;;;;;;;6.43;100.00;92295.19;6144955;23;20371;-75
2023/11/07 00:11:55;;;;;;;5.43;2.10;;;;;;;6.45;100.00;92301.66;6143574;23;20006;-75
2023/11/07 00:14:21;;;;;;;5.53;2.30;;;;;;;6.47;100.00;92293.63;6145033;23;20021;-75
2023/11/07 00:16:48;;;;;;;8.95;2.40;;;;;;;6.46;100.00;92294.63;6145093;23;20009;-75
2023/11/07 00:19:13;;;;;;;10.38;2.00;;;;;;;6.47;100.00;92294.38;6145046;23;20013;-76
2023/11/07 00:21:39;;;;;;;8.00;2.33;;;;;;;6.45;100.00;92293.88;6144547;23;20229;-75
2023/11/07 00:24:05;;;;;;;4.97;2.10;;;;;;;6.43;100.00;92298.56;6144672;23;20013;-76
2023/11/07 00:26:31;;;;;;;6.03;2.17;;;;;;;6.43;100.00;92293.34;6144715;23;20068;-75
2023/11/07 00:28:57;;;;;;;34.05;13.07;;;;;;;6.48;100.00;92289.94;6143441;23;20017;-76
2023/11/07 00:31:23;;;;;;;33.97;16.65;;;;;;;6.46;100.00;92292.84;6145141;23;20044;-75
2023/11/07 00:33:49;;;;;;;14.60;6.32;;;;;;;6.46;100.00;92300.63;6146005;23;20040;-76
2023/11/07 00:36:16;;;;;;;7.97;2.78;;;;;;;6.45;100.00;92306.88;6119404;23;20006;-76
2023/11/07 00:38:42;;;;;;;12.90;6.00;;;;;;;6.54;100.00;92308.94;6145729;23;20025;-75
2023/11/07 00:41:08;;;;;;;8.05;3.67;;;;;;;6.65;100.00;92313.06;6144881;23;20658;-76
2023/11/07 00:43:37;;;;;;;9.90;3.05;;;;;;;6.54;100.00;92320.09;6142968;23;20021;-75
2023/11/07 00:46:03;;;;;;;11.25;3.58;;;;;;;6.48;100.00;92321.16;6144825;23;20020;-76
2023/11/07 00:48:29;;;;;;;9.38;3.65;;;;;;;6.45;100.00;92319.88;6142756;23;20021;-75
2023/11/07 00:50:55;;;;;;;7.95;3.42;;;;;;;6.44;100.00;92313.13;6118803;23;20017;-76
2023/11/07 00:53:21;;;;;;;8.55;4.10;;;;;;;6.46;100.00;92318.03;6144842;23;20014;-76
2023/11/07 00:55:46;;;;;;;5.55;2.85;;;;;;;6.53;100.00;92328.16;6145178;23;20005;-75
2023/11/07 00:58:12;;;;;;;6.13;2.78;;;;;;;6.51;100.00;92314.66;6144594;23;20076;-76
2023/11/07 01:00:38;;;;;;;6.43;2.03;;;;;;;6.53;100.00;92315.16;6145322;23;20454;-76
2023/11/07 01:03:04;;;;;;;3.13;1.50;;;;;;;6.50;100.00;92310.50;6143259;23;20090;-76
2023/11/07 01:05:30;;;;;;;4.47;1.80;;;;;;;6.51;100.00;92314.66;6144796;23;20402;-76
2023/11/07 01:07:55;;;;;;;4.15;1.80;;;;;;;6.51;100.00;92319.84;6143231;23;20024;-76
2023/11/07 01:10:21;;;;;;;4.35;1.90;;;;;;;6.50;100.00;92315.69;6143114;23;20401;-76
2023/11/07 01:12:47;;;;;;;5.68;1.63;;;;;;;6.49;100.00;92319.38;6143970;23;20092;-76
2023/11/07 01:15:12;;;;;;;8.13;1.75;;;;;;;6.46;100.00;92318.84;6118457;23;20018;-76
2023/11/07 01:17:38;;;;;;;5.95;1.70;;;;;;;6.43;100.00;92319.34;6145140;23;20018;-75
2023/11/07 01:20:09;;;;;;;7.53;1.73;;;;;;;6.38;100.00;92316.78;6143326;23;20413;-76
2023/11/07 01:22:36;;;;;;;3.47;1.75;;;;;;;6.37;100.00;92320.44;6143431;23;20463;-76
2023/11/07 01:25:04;;;;;;;5.45;1.70;;;;;;;6.36;100.00;92321.47;6144556;23;20383;-76
2023/11/07 01:27:31;;;;;;;4.45;1.58;;;;;;;6.32;100.00;92325.63;6144690;23;20010;-75
2023/11/07 01:29:56;;;;;;;3.90;1.80;;;;;;;6.32;100.00;92330.81;6144353;23;20013;-76
2023/11/07 01:32:22;;;;;;;4.30;2.05;;;;;;;6.33;100.00;92318.63;6144204;23;20024;-75
2023/11/07 01:34:48;;;;;;;10.13;1.90;;;;;;;6.34;100.00;92333.94;6144318;23;20139;-75
2023/11/07 01:37:13;;;;;;;4.05;2.00;;;;;;;6.35;100.00;92329.50;6143307;23;20127;-76
2023/11/07 01:39:39;;;;;;;4.57;1.90;;;;;;;6.42;100.00;92340.44;6145101;23;20018;-76
2023/11/07 01:42:07;;;;;;;4.22;1.85;;;;;;;6.50;100.00;92341.72;6144746;23;20018;-76
2023/11/07 01:44:32;;;;;;;40.53;3.95;;;;;;;6.35;100.00;92345.09;6144437;23;20070;-76
2023/11/07 01:46:59;;;;;;;59.97;3.42;;;;;;;6.35;100.00;92343.31;6144076;23;20014;-75
2023/11/07 01:49:26;;;;;;;4.53;2.03;;;;;;;6.27;100.00;92336.03;6142578;23;20039;-75
2023/11/07 01:51:57;;;;;;;3.03;1.63;;;;;;;6.12;100.00;92349.03;6142459;23;20028;-75
2023/11/07 01:54:25;;;;;;;4.68;1.60;;;;;;;6.20;100.00;92345.94;6144231;23;20009;-75
2023/11/07 01:56:52;;;;;;;3.28;1.60;;;;;;;6.14;100.00;92341.78;6142282;23;20377;-76
2023/11/07 01:59:18;;;;;;;3.00;1.70;;;;;;;6.18;100.00;92340.22;6141825;23;20048;-76
2023/11/07 02:01:47;;;;;;;2.67;1.45;;;;;;;6.14;100.00;92326.94;6142822;23;20021;-76
2023/11/07 02:04:13;;;;;;;1.10;1.00;;;;;;;6.27;100.00;92330.06;6118138;23;20009;-75
2023/11/07 02:06:39;;;;;;;2.30;1.20;;;;;;;6.21;100.00;92331.88;6143647;23;20018;-75
2023/11/07 02:09:08;;;;;;;1.75;1.20;;;;;;;6.33;100.00;92334.22;6144103;23;20491;-75
2023/11/07 02:11:34;;;;;;;3.00;1.35;;;;;;;6.20;100.00;92330.34;6142007;23;20059;-76
2023/11/07 02:14:00;;;;;;;1.65;1.27;;;;;;;6.15;100.00;92327.75;6143913;23;20021;-76
2023/11/07 02:16:28;;;;;;;2.58;1.40;;;;;;;6.10;100.00;92330.34;6141938;23;20024;-75
2023/11/07 02:18:56;;;;;;;3.17;1.50;;;;;;;6.07;100.00;92331.63;6118077;23;20009;-76
2023/11/07 02:21:23;;;;;;;2.60;1.30;;;;;;;6.11;100.00;92335.28;6143566;23;20025;-75
2023/11/07 02:23:48;;;;;;;3.63;1.50;;;;;;;6.15;100.00;92333.72;6142898;23;20005;-75
2023/11/07 02:26:15;;;;;;;6.13;1.70;;;;;;;6.13;100.00;92341.00;6143737;23;20317;-75
2023/11/07 02:28:44;;;;;;;5.03;1.83;;;;;;;6.02;100.00;92344.66;6143710;23;20367;-75
2023/11/07 02:31:11;;;;;;;6.88;1.75;;;;;;;6.02;100.00;92347.25;6145327;23;20435;-76
2023/11/07 02:33:37;;;;;;;2.05;1.35;;;;;;;6.01;100.00;92349.06;6145424;23;20096;-76
2023/11/07 02:36:03;;;;;;;2.22;1.33;;;;;;;6.01;100.00;92337.88;6145374;23;20017;-76
2023/11/07 02:38:29;;;;;;;3.92;1.63;;;;;;;6.01;100.00;92330.88;6144929;23;20024;-76
2023/11/07 02:40:56;;;;;;;3.70;1.60;;;;;;;6.02;100.00;92319.44;6145176;23;20028;-75
2023/11/07 02:43:22;;;;;;;5.63;1.63;;;;;;;6.04;100.00;92306.97;6145222;23;20059;-76
2023/11/07 02:45:48;;;;;;;3.10;1.50;;;;;;;6.04;100.00;92309.56;6144118;23;20029;-76
2023/11/07 02:48:14;;;;;;;3.90;1.50;;;;;;;6.07;100.00;92310.06;6145482;23;20469;-76
2023/11/07 02:50:40;;;;;;;4.72;1.48;;;;;;;6.08;100.00;92303.81;6145223;23;20088;-75
2023/11/07 02:53:05;;;;;;;2.65;1.40;;;;;;;6.10;100.00;92306.94;6145429;23;20025;-75
2023/11/07 02:55:32;;;;;;;2.72;1.30;;;;;;;6.11;100.00;92298.13;6143353;23;20359;-76
2023/11/07 02:57:58;;;;;;;1.90;1.15;;;;;;;6.10;100.00;92299.91;6143301;23;20017;-75
2023/11/07 03:00:24;;;;;;;3.80;1.45;;;;;;;6.09;100.00;92300.19;6118827;23;20051;-75
2023/11/07 03:02:49;;;;;;;4.75;1.25;;;;;;;6.07;100.00;92299.69;6119007;23;20013;-75
2023/11/07 03:05:15;;;;;;;2.15;1.30;;;;;;;6.05;100.00;92303.31;6119087;23;20021;-75
2023/11/07 03:07:41;;;;;;;2.42;1.30;;;;;;;6.04;100.00;92309.56;6145615;23;20018;-75
2023/11/07 03:10:07;;;;;;;2.55;1.30;;;;;;;6.13;100.00;92314.22;6146011;23;20407;-75
2023/11/07 03:12:33;;;;;;;3.45;1.55;;;;;;;6.04;100.00;92317.34;6143862;23;20009;-75
2023/11/07 03:14:59;;;;;;;3.40;1.45;;;;;;;6.00;100.00;92312.94;6145218;23;20014;-75
2023/11/07 03:17:25;;;;;;;2.30;1.40;;;;;;;5.91;100.00;92297.06;6143361;23;20005;-75
2023/11/07 03:19:53;;;;;;;4.68;1.45;;;;;;;5.91;100.00;92297.06;6145086;23;20044;-75
2023/11/07 03:22:20;;;;;;;2.45;1.30;;;;;;;5.87;100.00;92301.22;6143379;23;20408;-75
2023/11/07 03:24:49;;;;;;;2.50;1.35;;;;;;;5.86;100.00;92304.09;6143601;23;20310;-75
2023/11/07 03:27:15;;;;;;;2.95;1.30;;;;;;;5.86;100.00;92315.25;6145005;23;20081;-75
2023/11/07 03:29:42;;;;;;;3.28;1.27;;;;;;;5.82;100.00;92306.44;6145394;23;20018;-75
2023/11/07 03:32:08;;;;;;;2.85;1.08;;;;;;;5.90;100.00;92307.72;6145285;23;20024;-75
2023/11/07 03:34:34;;;;;;;1.05;0.88;;;;;;;5.96;100.00;92309.31;6144988;23;20017;-75
2023/11/07 03:36:59;;;;;;;1.65;1.13;;;;;;;5.88;100.00;92315.78;6144383;23;20001;-75
2023/11/07 03:39:25;;;;;;;1.25;0.93;;;;;;;5.92;100.00;92324.63;6143280;23;20044;-75
2023/11/07 03:41:51;;;;;;;2.72;1.02;;;;;;;5.95;100.00;92325.94;6142359;23;20033;-75
2023/11/07 03:44:17;;;;;;;1.40;0.95;;;;;;;5.95;100.00;92323.34;6144665;23;20018;-75
2023/11/07 03:46:42;;;;;;;1.42;0.95;;;;;;;5.97;100.00;92331.66;6118592;23;20018;-75
2023/11/07 03:49:08;;;;;;;1.15;0.90;;;;;;;5.81;100.00;92328.25;6143577;23;20020;-75
2023/11/07 03:51:34;;;;;;;1.17;1.02;;;;;;;5.75;100.00;92329.28;6145093;23;20042;-75
2023/11/07 03:54:00;;;;;;;3.28;1.00;;;;;;;5.78;100.00;92328.75;6145036;23;20032;-75
2023/11/07 03:56:25;;;;;;;1.95;0.95;;;;;;;5.74;100.00;92327.72;6143531;23;20041;-75
2023/11/07 03:58:51;;;;;;;2.47;1.10;;;;;;;5.86;100.00;92327.47;6144254;23;20347;-75
2023/11/07 04:01:17;;;;;;;1.05;0.77;;;;;;;5.79;100.00;92330.34;6144591;23;20017;-75
2023/11/07 04:03:42;;;;;;;0.88;0.88;;;;;;;5.76;100.00;92333.44;6144541;23;20484;-75
2023/11/07 04:06:08;;;;;;;1.30;1.00;;;;;;;5.69;100.00;92338.88;6143128;23;20017;-75
2023/11/07 04:08:34;;;;;;;0.98;0.73;;;;;;;5.60;100.00;92324.88;6144683;23;20375;-75
2023/11/07 04:11:01;;;;;;;1.80;1.10;;;;;;;5.52;100.00;92331.34;6143085;23;20127;-75
2023/11/07 04:13:27;;;;;;;1.20;0.90;;;;;;;5.40;100.00;92326.41;6144797;23;20447;-75
2023/11/07 04:15:56;;;;;;;1.20;0.95;;;;;;;5.41;100.00;92324.59;6143460;23;20169;-75
2023/11/07 04:18:23;;;;;;;2.17;1.20;;;;;;;5.36;100.00;92322.00;6144865;23;20139;-75
2023/11/07 04:20:50;;;;;;;0.90;0.90;;;;;;;5.40;100.00;92326.41;6144654;23;20367;-75
2023/11/07 04:23:16;;;;;;;1.10;1.00;;;;;;;5.34;100.00;92321.47;6144415;23;20021;-75
2023/11/07 04:25:42;;;;;;;1.05;0.90;;;;;;;5.23;100.00;92318.06;6142957;23;20108;-75
2023/11/07 04:28:09;;;;;;;2.35;1.20;;;;;;;5.22;100.00;92325.09;6144348;23;20018;-75
2023/11/07 04:30:34;;;;;;;3.17;1.20;;;;;;;5.22;100.00;92319.91;6144737;23;20006;-75
2023/11/07 04:33:00;;;;;;;1.85;1.10;;;;;;;5.21;100.00;92318.31;6146799;23;20022;-75
2023/11/07 04:35:26;;;;;;;1.58;0.98;;;;;;;5.18;100.00;92316.25;6144406;23;20013;-75
2023/11/07 04:37:53;;;;;;;1.90;1.10;;;;;;;5.15;100.00;92319.34;6143189;23;20005;-75
2023/11/07 04:40:19;;;;;;;2.00;1.17;;;;;;;5.14;100.00;92320.38;6144633;23;20021;-75
2023/11/07 04:42:44;;;;;;;1.38;1.00;;;;;;;5.10;100.00;92311.56;6144780;23;20023;-75
2023/11/07 04:45:11;;;;;;;1.38;0.95;;;;;;;5.12;100.00;92322.47;6144647;23;20096;-75
2023/11/07 04:47:37;;;;;;;0.80;0.80;;;;;;;5.10;100.00;92321.16;6144543;23;20373;-75
2023/11/07 04:50:04;;;;;;;2.42;1.33;;;;;;;5.07;100.00;92313.91;6143264;23;20021;-74
2023/11/07 04:52:33;;;;;;;2.10;1.20;;;;;;;5.05;100.00;92321.16;6144843;23;20055;-75
2023/11/07 04:54:59;;;;;;;1.90;1.15;;;;;;;5.03;100.00;92318.81;6144777;23;20028;-75
2023/11/07 04:57:25;;;;;;;1.42;1.05;;;;;;;5.06;100.00;92320.88;6143080;23;20037;-75
2023/11/07 04:59:51;;;;;;;1.65;1.13;;;;;;;5.03;100.00;92320.63;6144322;23;20045;-75
2023/11/07 05:02:18;;;;;;;4.85;1.08;;;;;;;5.02;100.00;92317.22;6144429;23;20013;-75
2023/11/07 05:04:45;;;;;;;1.63;1.05;;;;;;;4.99;100.00;92322.94;6144389;23;20463;-75
2023/11/07 05:07:12;;;;;;;1.13;0.90;;;;;;;4.99;100.00;92322.94;6143795;23;20490;-75
2023/11/07 05:09:40;;;;;;;1.85;1.00;;;;;;;4.99;100.00;92325.53;6144248;23;20465;-74
2023/11/07 05:12:06;;;;;;;2.45;1.35;;;;;;;4.98;100.00;92321.41;6144620;23;20003;-75
2023/11/07 05:14:35;;;;;;;2.15;1.10;;;;;;;4.95;100.00;92327.06;6142900;23;20010;-75
2023/11/07 05:17:01;;;;;;;2.08;1.10;;;;;;;4.96;100.00;92328.66;6143082;23;20084;-76
2023/11/07 05:19:26;;;;;;;1.20;1.08;;;;;;;4.93;100.00;92329.13;6144772;23;20002;-75
2023/11/07 05:21:52;;;;;;;2.17;1.17;;;;;;;4.94;100.00;92325.53;6143148;23;20021;-74
2023/11/07 05:24:17;;;;;;;1.50;1.10;;;;;;;4.94;100.00;92321.13;6142512;23;20369;-75
2023/11/07 05:26:43;;;;;;;2.63;1.10;;;;;;;4.96;100.00;92323.47;6142169;23;20029;-75
2023/11/07 05:29:15;;;;;;;2.08;1.17;;;;;;;4.94;100.00;92325.53;6143623;23;20006;-75
2023/11/07 05:31:41;;;;;;;1.35;1.00;;;;;;;4.91;100.00;92326.03;6143858;23;20372;-75
2023/11/07 05:34:07;;;;;;;1.55;0.98;;;;;;;4.88;100.00;92318.75;6144379;23;20021;-75
2023/11/07 05:36:33;;;;;;;2.38;1.13;;;;;;;4.84;100.00;92318.50;6144300;23;20022;-76
2023/11/07 05:38:58;;;;;;;3.70;1.52;;;;;;;4.84;100.00;92320.28;6146693;23;20054;-76
2023/11/07 05:41:25;;;;;;;1.98;1.10;;;;;;;4.85;100.00;92321.88;6232287;22;20019;-75
2023/11/07 05:43:52;;;;;;;1.77;1.05;;;;;;;4.86;100.00;92326.00;6241973;22;20031;-76
2023/11/07 05:46:18;;;;;;;1.15;0.93;;;;;;;4.83;100.00;92329.91;6268906;22;20007;-75
2023/11/07 05:48:45;;;;;;;1.67;1.15;;;;;;;4.82;100.00;92327.53;6268924;22;20016;-76
2023/11/07 05:51:10;;;;;;;1.17;1.00;;;;;;;4.80;100.00;92326.00;6268457;22;20042;-76
2023/11/07 05:53:37;;;;;;;1.17;0.90;;;;;;;4.83;100.00;92329.13;6268774;22;20003;-75
2023/11/07 05:56:03;;;;;;;1.98;1.15;;;;;;;4.80;100.00;92320.81;6269062;22;20035;-75
2023/11/07 05:58:29;;;;;;;3.30;1.05;;;;;;;4.80;100.00;92320.81;6269166;22;20039;-76
2023/11/07 06:00:55;;;;;;;1.55;1.00;;;;;;;4.83;100.00;92323.94;6244499;22;20007;-75
2023/11/07 06:03:21;;;;;;;1.73;1.02;;;;;;;4.84;100.00;92328.06;6270295;22;20073;-74
2023/11/07 06:05:47;;;;;;;1.33;1.10;;;;;;;4.82;100.00;92323.16;6271095;22;20020;-75
2023/11/07 06:08:13;;;;;;;2.30;1.20;;;;;;;4.83;100.00;92329.91;6270512;22;20014;-75
2023/11/07 06:10:38;;;;;;;1.80;1.10;;;;;;;4.80;100.00;92333.78;6270721;22;20326;-76
2023/11/07 06:13:05;;;;;;;3.42;1.17;;;;;;;4.79;100.00;92329.63;6243612;22;20011;-76
2023/11/07 06:15:35;;;;;;;3.40;1.60;;;;;;;4.80;100.00;92338.19;6242920;22;20125;-76
2023/11/07 06:18:01;;;;;;;4.65;2.42;;;;;;;4.80;100.00;92346.75;6270676;22;20022;-76
2023/11/07 06:20:26;;;;;;;4.47;2.30;;;;;;;4.80;100.00;92333.78;6271871;22;20083;-76
2023/11/07 06:22:52;;;;;;;2.95;1.70;;;;;;;4.84;100.00;92339.25;6271518;22;20434;-75
2023/11/07 06:25:19;;;;;;;3.70;1.95;;;;;;;4.87;100.00;92345.75;6271326;22;20015;-75
2023/11/07 06:27:45;;;;;;;2.90;1.65;;;;;;;4.89;100.00;92354.81;6271494;22;20074;-77
2023/11/07 06:30:10;;;;;;;8.23;4.53;;;;;;;4.93;100.00;92353.28;6270814;22;20008;-75
2023/11/07 06:32:39;;;;;;;14.90;7.30;;;;;;;4.95;100.00;92351.22;6270706;22;20019;-75
2023/11/07 06:35:06;;;;;;;10.23;4.40;;;;;;;5.00;100.00;92356.41;6270366;22;20064;-75
2023/11/07 06:37:35;;;;;;;7.18;3.20;;;;;;;5.03;100.00;92365.50;6268716;22;20000;-76
2023/11/07 06:40:13;;;;;;;6.20;3.40;;;;;;;5.05;100.00;92368.63;6243753;22;20108;-75
2023/11/07 06:42:43;;;;;;;5.30;2.78;;;;;;;5.08;100.00;92362.91;6270407;22;20349;-75
2023/11/07 06:45:13;;;;;;;6.32;3.20;;;;;;;5.12;100.00;92369.16;6271042;22;20011;-74
2023/11/07 06:47:43;;;;;;;4.97;2.42;;;;;;;5.16;100.00;92369.44;6244570;22;20209;-75
2023/11/07 06:50:10;;;;;;;4.90;2.25;;;;;;;5.24;100.00;92381.13;6244451;22;20022;-75
2023/11/07 06:52:42;;;;;;;3.35;1.75;;;;;;;5.28;100.00;92377.00;6270713;22;20011;-75
2023/11/07 06:55:12;;;;;;;3.65;1.73;;;;;;;5.32;100.00;92378.06;6243515;22;20015;-75
2023/11/07 06:57:38;;;;;;;2.28;1.20;;;;;;;5.36;100.00;92384.31;6269026;22;20089;-74
2023/11/07 07:00:05;;;;;;;2.45;1.30;;;;;;;5.41;100.00;92384.31;6269820;22;20057;-75
2023/11/07 07:02:32;;;;;;;2.42;1.55;;;;;;;5.47;100.00;92385.88;6242058;22;20020;-77
2023/11/07 07:04:58;;;;;;;4.13;1.70;;;;;;;5.48;100.00;92392.63;6242134;22;20020;-76
2023/11/07 07:07:24;;;;;;;2.20;1.35;;;;;;;5.53;100.00;92400.41;6243677;22;20452;-77
2023/11/07 07:09:50;;;;;;;3.03;1.63;;;;;;;5.59;100.00;92399.41;6270715;22;20019;-74
2023/11/07 07:12:15;;;;;;;2.30;1.48;;;;;;;5.61;100.00;92405.13;6242865;22;20042;-75
2023/11/07 07:14:41;;;;;;;2.50;1.30;;;;;;;5.73;100.00;92409.28;6270578;22;20015;-76
2023/11/07 07:17:07;;;;;;;3.47;1.67;;;;;;;5.74;100.00;92410.84;6270526;22;20003;-74
2023/11/07 07:19:37;;;;;;;5.25;1.50;;;;;;;5.80;100.00;92415.00;6270120;22;20019;-76
2023/11/07 07:22:06;;;;;;;2.23;1.33;;;;;;;5.84;100.00;92410.88;6270018;22;20012;-74
2023/11/07 07:24:32;;;;;;;2.67;1.30;;;;;;;5.88;100.00;92409.31;6270290;22;20230;-75
2023/11/07 07:26:58;;;;;;;2.38;1.45;;;;;;;5.93;100.00;92418.94;6270174;22;20016;-74
2023/11/07 07:29:27;;;;;;;8.43;2.30;;;;;;;5.93;100.00;92419.69;6269549;22;20019;-74
2023/11/07 07:31:53;;;;;;;8.05;1.90;;;;;;;5.86;100.00;92419.19;6270545;22;19999;-76
2023/11/07 07:34:20;;;;;;;11.77;2.45;;;;;;;5.82;100.00;92428.53;6270370;22;20103;-76
2023/11/07 07:36:47;;;;;;;6.07;1.63;;;;;;;5.81;100.00;92422.56;6269938;22;20015;-75
2023/11/07 07:39:29;;;;;;;3.75;1.63;;;;;;;5.83;100.00;92427.47;6270486;22;20003;-75
2023/11/07 07:42:10;;;;;;;2.40;1.30;;;;;;;5.85;100.00;92428.00;6269355;22;20472;-75
2023/11/07 07:44:36;;;;;;;2.13;1.38;;;;;;;5.89;100.00;92423.84;6244362;22;20018;-75
2023/11/07 07:47:02;;;;;;;2.47;1.30;;;;;;;5.93;100.00;92418.94;6242423;22;20012;-75
2023/11/07 07:49:30;;;;;;;2.30;1.23;;;;;;;6.01;100.00;92421.81;6218026;22;20069;-75
2023/11/07 07:52:09;;;;;;;3.83;1.08;;;;;;;6.10;100.00;92424.66;6269787;22;20016;-75
2023/11/07 07:54:37;;;;;;;1.52;1.05;;;;;;;6.22;100.00;92424.44;6270401;22;20015;-75
2023/11/07 07:57:08;;;;;;;4.18;1.25;;;;;;;6.26;100.00;92428.06;6270328;22;20372;-74
2023/11/07 07:59:35;;;;;;;2.50;1.23;;;;;;;6.32;100.00;92431.44;6269637;22;20014;-75
2023/11/07 08:02:01;;;;;;;1.45;1.00;;;;;;;6.38;100.00;92431.19;6270364;22;20020;-75
2023/11/07 08:04:31;;;;;;;3.88;1.20;;;;;;;6.45;100.00;92429.09;6269545;22;20082;-75
2023/11/07 08:06:58;;;;;;;2.28;1.23;;;;;;;6.57;100.00;92441.03;6269543;22;20350;-75
2023/11/07 08:09:24;;;;;;;2.67;1.38;;;;;;;6.69;100.00;92436.34;6270377;22;20330;-75
2023/11/07 08:11:53;;;;;;;1.90;1.20;;;;;;;6.85;100.00;92440.47;6269943;22;20015;-75
2023/11/07 08:14:20;;;;;;;2.00;1.30;;;;;;;6.95;100.00;92434.47;6270060;22;20335;-75
2023/11/07 08:16:46;;;;;;;1.50;1.10;;;;;;;7.03;100.00;92436.53;6270542;22;20022;-75
2023/11/07 08:19:12;;;;;;;2.88;1.50;;;;;;;7.05;100.00;92444.09;6243179;22;20433;-75
2023/11/07 08:21:39;;;;;;;6.18;1.70;;;;;;;7.00;100.00;92441.47;6269836;22;20160;-75
2023/11/07 08:24:05;;;;;;;5.63;1.50;;;;;;;7.09;100.00;92437.28;6269601;22;20425;-75
2023/11/07 08:26:33;;;;;;;8.10;1.33;;;;;;;7.18;100.00;92434.91;6269533;22;20012;-75
2023/11/07 08:29:00;;;;;;;3.97;1.60;;;;;;;7.24;100.00;92432.03;6269400;22;20015;-75
2023/11/07 08:31:26;;;;;;;1.17;1.00;;;;;;;7.33;100.00;92429.66;6269381;22;20053;-76
2023/11/07 08:33:52;;;;;;;2.33;1.30;;;;;;;7.23;100.00;92440.13;6269496;22;20012;-75
2023/11/07 08:36:18;;;;;;;2.95;1.52;;;;;;;7.27;100.00;92436.72;6269864;22;20412;-75
2023/11/07 08:38:45;;;;;;;3.13;1.30;;;;;;;7.38;100.00;92428.84;6242821;22;20035;-74
2023/11/07 08:41:11;;;;;;;7.10;1.98;;;;;;;7.52;100.00;92432.44;6270040;22;20427;-75
2023/11/07 08:43:37;;;;;;;11.68;2.47;;;;;;;7.76;100.00;92429.19;6269720;22;20011;-75
2023/11/07 08:46:03;;;;;;;17.13;3.42;;;;;;;7.92;100.00;92425.44;6269481;22;20049;-75
2023/11/07 08:48:30;;;;;;;7.20;1.80;;;;;;;8.28;100.00;92427.78;6217077;22;20321;-75
2023/11/07 08:50:56;;;;;;;6.13;1.67;;;;;;;8.64;100.00;92435.34;6269236;22;19999;-76
2023/11/07 08:53:22;;;;;;;3.97;1.40;;;;;;;8.75;100.00;92439.44;6269343;22;20018;-75
2023/11/07 08:55:50;;;;;;;4.30;1.38;;;;;;;8.67;100.00;92445.22;6268513;22;20330;-75
2023/11/07 08:58:19;;;;;;;2.33;1.30;;;;;;;8.41;100.00;92442.84;6269226;22;20042;-75
2023/11/07 09:00:45;;;;;;;2.65;1.23;;;;;;;8.12;100.00;92446.16;6269778;22;20082;-75
2023/11/07 09:03:11;;;;;;;6.20;1.58;;;;;;;7.94;100.00;92454.63;6269645;22;20445;-75
2023/11/07 09:05:38;;;;;;;3.83;1.60;;;;;;;7.71;100.00;92453.44;6269593;22;20094;-75
2023/11/07 09:08:04;;;;;;;4.43;1.70;;;;;;;7.49;100.00;92459.00;6269201;22;20317;-75
2023/11/07 09:10:36;;;;;;;4.30;1.77;;;;;;;7.36;100.00;92449.94;6269258;22;20464;-74
2023/11/07 09:13:03;;;;;;;3.38;1.83;;;;;;;7.24;100.00;92452.84;6269491;22;20024;-75
2023/11/07 09:15:29;;;;;;;5.32;1.77;;;;;;;7.06;100.00;92458.66;6269032;22;20020;-75
2023/11/07 09:17:54;;;;;;;3.40;1.80;;;;;;;7.14;100.00;92447.69;6269243;22;20445;-75
2023/11/07 09:20:20;;;;;;;4.90;1.70;;;;;;;7.26;100.00;92450.75;6242316;22;20004;-75
2023/11/07 09:22:47;;;;;;;1.80;1.35;;;;;;;7.47;100.00;92456.66;6269562;22;20141;-75
2023/11/07 09:25:12;;;;;;;2.05;1.30;;;;;;;7.76;100.00;92450.03;6242576;22;20348;-75
2023/11/07 09:27:38;;;;;;;2.80;1.30;;;;;;;8.08;100.00;92450.38;6269413;22;20099;-74
2023/11/07 09:30:09;;;;;;;2.22;1.40;;;;;;;8.35;100.00;92451.72;6242774;22;20015;-75
2023/11/07 09:32:39;;;;;;;2.78;1.42;;;;;;;8.58;100.00;92462.53;6269305;22;20032;-75
2023/11/07 09:35:06;;;;;;;3.92;1.30;;;;;;;8.69;100.00;92462.19;6270715;22;20016;-76
2023/11/07 09:37:33;;;;;;;2.88;1.27;;;;;;;8.86;100.00;92461.78;6271260;22;20003;-75
2023/11/07 09:39:59;;;;;;;2.90;1.50;;;;;;;8.94;100.00;92457.78;6271079;22;20349;-76
2023/11/07 09:42:28;;;;;;;1.65;1.10;;;;;;;9.08;100.00;92461.31;6246649;22;20017;-77
2023/11/07 09:44:54;;;;;;;3.67;1.50;;;;;;;9.23;100.00;92456.97;6271568;22;20047;-76
2023/11/07 09:47:23;;;;;;;2.15;1.15;;;;;;;9.13;100.00;92457.84;6272117;22;20464;-75
2023/11/07 09:49:48;;;;;;;3.30;1.38;;;;;;;9.22;100.00;92456.19;6273451;22;20015;-77
2023/11/07 09:52:14;;;;;;;3.05;1.55;;;;;;;9.09;100.00;92462.06;6272709;22;20011;-77
2023/11/07 09:54:47;;;;;;;2.08;1.40;;;;;;;9.07;100.00;92458.97;6245925;22;20023;-77
2023/11/07 09:57:14;;;;;;;2.55;1.48;;;;;;;9.73;100.00;92455.59;6273039;22;20356;-77
2023/11/07 09:59:52;;;;;;;3.35;1.20;;;;;;;10.40;100.00;92454.69;6271954;22;20323;-77
2023/11/07 10:02:18;;;;;;;2.80;1.00;;;;;;;10.44;100.00;92458.28;6245042;22;20091;-77
2023/11/07 10:04:48;;;;;;;1.83;1.02;;;;;;;9.99;100.00;92460.50;6244916;22;20366;-77
2023/11/07 10:07:13;;;;;;;2.17;1.40;;;;;;;9.60;100.00;92461.50;6272269;22;20457;-77
2023/11/07 10:09:40;;;;;;;2.28;1.38;;;;;;;9.41;100.00;92463.28;6245654;22;20027;-77
2023/11/07 10:12:15;;;;;;;3.25;1.13;;;;;;;9.20;100.00;92460.91;6245624;22;20011;-77
2023/11/07 10:14:42;;;;;;;2.72;1.40;;;;;;;9.23;100.00;92463.00;6271781;22;20015;-77
2023/11/07 10:17:19;;;;;;;1.70;1.20;;;;;;;9.30;100.00;92458.22;6244918;22;19992;-77
2023/11/07 10:19:46;;;;;;;2.25;1.10;;;;;;;9.53;100.00;92461.84;6271776;22;20413;-77
2023/11/07 10:22:12;;;;;;;1.55;1.00;;;;;;;9.80;100.00;92460.50;6244709;22;20012;-76
2023/11/07 10:24:44;;;;;;;1.35;1.00;;;;;;;9.88;100.00;92469.53;6271663;22;20010;-76
2023/11/07 10:27:11;;;;;;;1.65;1.02;;;;;;;9.66;100.00;92465.63;6271290;22;20045;-77
2023/11/07 10:29:51;;;;;;;2.58;1.35;;;;;;;9.30;100.00;92463.44;6272442;22;20004;-76
2023/11/07 10:32:17;;;;;;;3.45;1.40;;;;;;;9.63;100.00;92460.16;6271609;22;20095;-76
2023/11/07 10:34:43;;;;;;;1.45;1.05;;;;;;;9.57;100.00;92462.09;6272676;22;20494;-77
2023/11/07 10:37:10;;;;;;;1.92;1.13;;;;;;;10.09;100.00;92455.13;6272063;22;20069;-77
2023/11/07 10:39:36;;;;;;;0.98;0.93;;;;;;;10.38;100.00;92454.19;6271228;22;20521;-76
2023/11/07 10:42:18;;;;;;;2.10;1.15;;;;;;;10.20;100.00;92448.69;6271089;22;20051;-77
2023/11/07 10:44:50;;;;;;;1.83;1.20;;;;;;;10.34;100.00;92448.00;6243819;22;20070;-77
2023/11/07 10:47:17;;;;;;;1.63;1.05;;;;;;;10.29;100.00;92453.28;6270456;22;20547;-77
2023/11/07 10:49:48;;;;;;;1.85;1.20;;;;;;;10.28;100.00;92449.88;6270317;22;20076;-78
2023/11/07 10:52:14;;;;;;;1.33;1.00;;;;;;;10.60;100.00;92441.31;6245112;22;20012;-77
2023/11/07 10:54:41;;;;;;;1.88;1.20;;;;;;;10.53;100.00;92446.13;6270783;22;20448;-76
2023/11/07 10:57:12;;;;;;;3.13;1.10;;;;;;;10.52;100.00;92438.56;6271100;22;20015;-77
2023/11/07 10:59:45;;;;;;;4.10;1.10;;;;;;;10.40;100.00;92436.38;6242985;22;20023;-78
2023/11/07 11:02:12;;;;;;;2.08;1.15;;;;;;;10.36;100.00;92427.56;6272848;22;20027;-78
2023/11/07 11:04:40;;;;;;;3.45;1.25;;;;;;;10.11;100.00;92434.69;6272405;22;20034;-76
2023/11/07 11:07:08;;;;;;;3.72;1.40;;;;;;;10.29;100.00;92425.31;6272713;22;20050;-79
2023/11/07 11:09:34;;;;;;;3.00;1.25;;;;;;;10.56;100.00;92424.63;6244618;22;20015;-79
2023/11/07 11:12:04;;;;;;;1.02;0.90;;;;;;;10.95;100.00;92425.28;6246221;22;20047;-79
2023/11/07 11:14:30;;;;;;;1.00;0.82;;;;;;;10.57;100.00;92420.94;6273141;22;20039;-78
2023/11/07 11:17:22;;;;;;;1.70;0.90;;;;;;;10.62;100.00;92418.22;6248095;22;19995;-78
2023/11/07 11:20:03;;;;;;;1.73;1.20;;;;;;;10.67;100.00;92414.75;6273124;22;20023;-79
2023/11/07 11:22:46;;;;;;;2.00;1.20;;;;;;;10.63;100.00;92411.94;6245601;22;20859;-78
2023/11/07 11:25:49;;;;;;;1.52;1.10;;;;;;;10.52;100.00;92413.16;6273529;22;20364;-79
2023/11/07 11:28:14;;;;;;;3.33;1.10;;;;;;;10.53;100.00;92417.31;6273424;22;20057;-78
2023/11/07 11:30:40;;;;;;;1.40;1.30;;;;;;;10.09;100.00;92415.13;6274020;22;20074;-79
2023/11/07 11:33:08;;;;;;;1.23;0.95;;;;;;;10.17;100.00;92417.06;6274245;22;20109;-78